Time;durP1;ratioP1;P1;durP2;ratioP2;P2;SDS_P1;SDS_P2;PMS_P1;PMS_P2;Temp;Humidity;BMP_temperature;BMP_pressure;BME280_temperature;BME280_humidity;BME280_pressure;Samples;Min_cycle;Max_cycle;Signal;HPM_P1;HPM_P2
2023/06/14 00:02:26;;;;;;;2.90;2.40;;;13.90;95.80;;;;;;5052998;28;20959;-71
2023/06/14 00:04:53;;;;;;;5.60;3.63;;;13.80;95.80;;;;;;5053459;28;20814;-71
2023/06/14 00:07:34;;;;;;;3.60;3.30;;;13.80;95.70;;;;;;5053725;28;20451;-70
2023/06/14 00:10:00;;;;;;;3.17;2.87;;;13.80;95.30;;;;;;5053564;28;20485;-71
2023/06/14 00:12:27;;;;;;;4.03;3.43;;;13.80;95.60;;;;;;5052970;28;20471;-71
2023/06/14 00:14:54;;;;;;;3.20;2.67;;;13.80;95.70;;;;;;5052122;28;20467;-72
2023/06/14 00:17:21;;;;;;;4.80;3.03;;;13.70;95.50;;;;;;5125231;22;20486;-70
2023/06/14 00:19:48;;;;;;;3.40;3.10;;;13.70;95.20;;;;;;5069883;28;20541;-70
2023/06/14 00:22:15;;;;;;;5.00;3.37;;;13.70;94.90;;;;;;5072591;28;20470;-70
2023/06/14 00:24:43;;;;;;;3.20;2.83;;;13.70;94.70;;;;;;5072293;28;20461;-72
2023/06/14 00:27:10;;;;;;;3.70;3.20;;;13.60;95.50;;;;;;5066753;28;20466;-71
2023/06/14 00:29:36;;;;;;;3.70;2.70;;;13.60;95.50;;;;;;5052365;28;20471;-72
2023/06/14 00:32:03;;;;;;;3.70;3.40;;;13.50;95.80;;;;;;5052100;28;20870;-72
2023/06/14 00:34:30;;;;;;;2.93;2.60;;;13.50;96.00;;;;;;5069963;28;20471;-72
2023/06/14 00:36:57;;;;;;;4.97;3.40;;;13.40;95.50;;;;;;5072374;28;20458;-70
2023/06/14 00:39:23;;;;;;;3.40;3.10;;;13.40;95.70;;;;;;5072036;28;21048;-71
2023/06/14 00:41:51;;;;;;;3.30;2.90;;;13.40;96.40;;;;;;5056907;28;20472;-71
2023/06/14 00:44:18;;;;;;;3.03;2.70;;;13.40;96.10;;;;;;5050625;28;20835;-71
2023/06/14 00:46:46;;;;;;;3.73;3.33;;;13.40;96.10;;;;;;5049089;28;20475;-71
2023/06/14 00:49:15;;;;;;;3.67;2.77;;;13.30;96.40;;;;;;5050425;28;20479;-71
2023/06/14 00:51:42;;;;;;;3.50;2.80;;;13.20;96.70;;;;;;5051176;28;20550;-71
2023/06/14 00:54:08;;;;;;;4.40;3.10;;;13.20;96.90;;;;;;5050705;28;20477;-71
2023/06/14 00:56:36;;;;;;;3.47;3.00;;;13.20;97.20;;;;;;5051129;28;20985;-71
2023/06/14 00:59:05;;;;;;;3.13;2.83;;;13.10;97.20;;;;;;5051899;28;20572;-71
2023/06/14 01:01:32;;;;;;;3.60;3.30;;;13.10;97.00;;;;;;5051600;28;20542;-71
2023/06/14 01:03:59;;;;;;;3.23;2.87;;;13.10;97.60;;;;;;5071998;28;20502;-71
2023/06/14 01:06:34;;;;;;;3.87;3.20;;;13.00;97.50;;;;;;5072028;28;20463;-71
2023/06/14 01:09:10;;;;;;;3.57;3.27;;;13.00;97.40;;;;;;5037156;28;20580;-71
2023/06/14 01:11:45;;;;;;;4.63;3.47;;;13.00;97.20;;;;;;5051351;28;20537;-71
2023/06/14 01:14:16;;;;;;;3.83;3.43;;;13.00;97.10;;;;;;5066563;28;20470;-71
2023/06/14 01:16:43;;;;;;;4.53;3.63;;;13.00;97.10;;;;;;5069566;28;20545;-71
2023/06/14 01:19:13;;;;;;;3.33;3.03;;;13.00;97.20;;;;;;5051512;28;20479;-72
2023/06/14 01:21:41;;;;;;;3.90;3.47;;;13.00;97.30;;;;;;5050935;28;20649;-71
2023/06/14 01:24:10;;;;;;;3.63;3.10;;;12.90;97.60;;;;;;5051390;28;20456;-70
2023/06/14 01:26:39;;;;;;;3.90;3.20;;;12.90;97.70;;;;;;5059472;28;20545;-71
2023/06/14 01:29:06;;;;;;;2.87;2.60;;;12.90;97.40;;;;;;5051617;28;20972;-71
2023/06/14 01:31:41;;;;;;;3.63;3.23;;;12.80;97.40;;;;;;5050626;28;20967;-71
2023/06/14 01:34:08;;;;;;;4.53;3.40;;;12.80;97.70;;;;;;5051458;28;20546;-72
2023/06/14 01:36:37;;;;;;;3.57;3.00;;;12.80;97.50;;;;;;5068529;28;20487;-71
2023/06/14 01:39:06;;;;;;;4.10;3.70;;;12.80;97.50;;;;;;5058793;28;20511;-71
2023/06/14 01:41:35;;;;;;;4.03;3.17;;;12.80;97.50;;;;;;5051101;28;20470;-71
2023/06/14 01:44:02;;;;;;;4.10;3.20;;;12.70;97.50;;;;;;5051356;28;20909;-70
2023/06/14 01:46:29;;;;;;;5.63;2.90;;;12.70;97.90;;;;;;5051480;28;20985;-71
2023/06/14 01:48:56;;;;;;;3.97;3.40;;;12.70;97.80;;;;;;5051029;28;20475;-70
2023/06/14 01:51:22;;;;;;;4.60;3.00;;;12.60;97.70;;;;;;5059270;28;20463;-70
2023/06/14 01:53:49;;;;;;;3.53;3.23;;;12.60;98.00;;;;;;5050987;28;20466;-71
2023/06/14 01:56:16;;;;;;;3.60;3.27;;;12.60;97.90;;;;;;5051308;28;21095;-70
2023/06/14 01:58:44;;;;;;;3.90;3.33;;;12.60;98.10;;;;;;5050586;28;20888;-71
2023/06/14 02:01:11;;;;;;;4.70;3.87;;;12.60;98.40;;;;;;5050723;28;20502;-70
2023/06/14 02:03:38;;;;;;;3.90;3.60;;;12.50;98.80;;;;;;5049579;28;20485;-72
2023/06/14 02:06:05;;;;;;;4.70;3.80;;;12.50;98.90;;;;;;5050913;28;20594;-71
2023/06/14 02:08:32;;;;;;;4.13;3.07;;;12.50;98.70;;;;;;5050823;28;20482;-71
2023/06/14 02:10:59;;;;;;;4.57;3.57;;;12.40;98.80;;;;;;5050849;28;20463;-72
2023/06/14 02:13:26;;;;;;;3.40;3.07;;;12.40;98.80;;;;;;5050803;28;20570;-71
2023/06/14 02:15:54;;;;;;;3.80;3.40;;;12.40;99.10;;;;;;5050436;28;20517;-71
2023/06/14 02:18:21;;;;;;;6.20;3.90;;;12.30;99.10;;;;;;5050792;28;20484;-71
2023/06/14 02:20:48;;;;;;;4.33;3.50;;;12.30;99.10;;;;;;5050125;28;20492;-69
2023/06/14 02:23:14;;;;;;;4.00;3.60;;;12.30;99.20;;;;;;5049897;28;20498;-72
2023/06/14 02:25:42;;;;;;;4.17;3.67;;;12.30;99.20;;;;;;5050325;28;20954;-72
2023/06/14 02:28:09;;;;;;;4.40;3.60;;;12.30;99.40;;;;;;5050801;28;20561;-71
2023/06/14 02:30:36;;;;;;;4.00;3.60;;;12.20;99.50;;;;;;5050172;28;20870;-71
2023/06/14 02:33:04;;;;;;;3.80;3.23;;;12.20;99.70;;;;;;5050446;28;20886;-71
2023/06/14 02:35:31;;;;;;;3.90;3.60;;;12.20;99.90;;;;;;5050953;28;20464;-71
2023/06/14 02:37:58;;;;;;;4.30;3.53;;;12.10;99.90;;;;;;5042212;28;20491;-71
2023/06/14 02:40:25;;;;;;;3.73;3.37;;;12.10;99.70;;;;;;5050451;28;20467;-71
2023/06/14 02:42:51;;;;;;;4.20;3.20;;;12.10;99.90;;;;;;5049878;28;20830;-71
2023/06/14 02:45:18;;;;;;;4.20;3.40;;;12.10;99.80;;;;;;5050522;28;20467;-71
2023/06/14 02:47:46;;;;;;;5.40;3.23;;;12.10;99.90;;;;;;5050050;28;20839;-71
2023/06/14 02:50:15;;;;;;;4.10;3.30;;;12.00;99.90;;;;;;5050291;28;20835;-72
2023/06/14 02:52:44;;;;;;;3.70;3.37;;;12.00;99.90;;;;;;5049768;28;20459;-71
2023/06/14 02:55:11;;;;;;;4.90;3.63;;;12.00;99.90;;;;;;5050419;28;20491;-71
2023/06/14 02:57:38;;;;;;;4.73;3.47;;;12.00;99.90;;;;;;5049948;28;20459;-71
2023/06/14 03:00:09;;;;;;;5.43;3.80;;;11.90;99.90;;;;;;5050095;28;20824;-71
2023/06/14 03:02:36;;;;;;;5.47;3.47;;;11.90;99.90;;;;;;5058389;28;20464;-70
2023/06/14 03:05:03;;;;;;;3.83;3.00;;;11.90;99.90;;;;;;5069987;28;20466;-71
2023/06/14 03:07:31;;;;;;;4.53;3.60;;;11.90;99.90;;;;;;5070227;28;21005;-70
2023/06/14 03:09:58;;;;;;;4.60;3.80;;;11.90;99.90;;;;;;5069657;28;20459;-71
2023/06/14 03:12:24;;;;;;;3.87;3.27;;;11.90;99.90;;;;;;5069340;28;20837;-70
2023/06/14 03:14:51;;;;;;;4.87;3.27;;;11.90;99.90;;;;;;5069660;28;20980;-71
2023/06/14 03:17:19;;;;;;;4.30;3.80;;;11.80;99.90;;;;;;5064234;28;20467;-71
2023/06/14 03:19:46;;;;;;;3.63;3.07;;;11.80;99.90;;;;;;5066400;28;20485;-71
2023/06/14 03:22:12;;;;;;;4.90;4.07;;;11.80;99.90;;;;;;5063471;28;20466;-71
2023/06/14 03:24:42;;;;;;;3.77;3.10;;;11.80;99.90;;;;;;5069832;28;20453;-71
2023/06/14 03:27:10;;;;;;;3.20;2.93;;;11.80;99.90;;;;;;5070010;28;20462;-72
2023/06/14 03:29:37;;;;;;;5.23;3.20;;;11.80;99.90;;;;;;5059977;28;20507;-72
2023/06/14 03:32:05;;;;;;;4.60;3.90;;;11.70;99.90;;;;;;5045177;28;20468;-71
2023/06/14 03:34:31;;;;;;;5.70;3.53;;;11.70;99.90;;;;;;5042728;28;20468;-71
2023/06/14 03:36:58;;;;;;;4.00;3.20;;;11.70;99.90;;;;;;5046760;28;20463;-70
2023/06/14 03:39:25;;;;;;;4.27;3.50;;;11.70;99.90;;;;;;5041331;28;20498;-71
2023/06/14 03:41:53;;;;;;;4.65;3.70;;;11.70;99.90;;;;;;5041445;28;20505;-71
2023/06/14 03:44:20;;;;;;;4.13;3.30;;;11.70;99.90;;;;;;5042137;28;20244;-71
2023/06/14 03:46:47;;;;;;;4.20;3.80;;;11.70;99.90;;;;;;5034521;28;20978;-71
2023/06/14 03:49:16;;;;;;;6.77;3.57;;;11.70;99.90;;;;;;5042885;28;21011;-71
2023/06/14 03:51:43;;;;;;;4.10;3.30;;;11.70;99.90;;;;;;5041997;28;20461;-70
2023/06/14 03:54:10;;;;;;;5.13;3.40;;;11.70;99.90;;;;;;5046440;28;20478;-71
2023/06/14 03:56:37;;;;;;;3.77;3.40;;;11.70;99.90;;;;;;5039539;28;20463;-71
2023/06/14 03:59:05;;;;;;;5.07;3.73;;;11.70;99.90;;;;;;5043480;28;20478;-72
2023/06/14 04:01:33;;;;;;;4.20;2.87;;;11.80;99.90;;;;;;5040432;28;20959;-70
2023/06/14 04:04:00;;;;;;;6.73;3.87;;;11.80;99.90;;;;;;5043196;28;20463;-71
2023/06/14 04:06:32;;;;;;;3.47;3.17;;;11.80;99.90;;;;;;5042910;28;20466;-71
2023/06/14 04:09:03;;;;;;;3.70;3.20;;;11.80;99.90;;;;;;5043124;28;20578;-72
2023/06/14 04:11:30;;;;;;;4.60;3.50;;;11.80;99.90;;;;;;5042959;28;20472;-73
2023/06/14 04:13:57;;;;;;;5.67;3.60;;;11.80;99.90;;;;;;5044628;28;20464;-73
2023/06/14 04:16:25;;;;;;;8.30;3.83;;;11.80;99.90;;;;;;5044659;28;20463;-74
2023/06/14 04:18:53;;;;;;;4.67;3.87;;;11.80;99.90;;;;;;5042635;28;20490;-73
2023/06/14 04:21:20;;;;;;;3.80;3.23;;;11.90;99.90;;;;;;5042299;28;20471;-73
2023/06/14 04:23:46;;;;;;;3.43;2.90;;;11.90;99.90;;;;;;5043396;28;20944;-72
2023/06/14 04:26:14;;;;;;;4.53;4.13;;;11.90;99.90;;;;;;5047806;28;20470;-74
2023/06/14 04:28:41;;;;;;;5.07;3.67;;;12.00;99.90;;;;;;5051730;28;20486;-72
2023/06/14 04:31:08;;;;;;;4.50;3.53;;;12.00;99.90;;;;;;5051633;28;20514;-73
2023/06/14 04:33:42;;;;;;;5.13;4.10;;;12.00;99.90;;;;;;5052571;28;20921;-73
2023/06/14 04:36:10;;;;;;;4.90;3.77;;;12.10;99.90;;;;;;5052983;28;20881;-72
2023/06/14 04:38:36;;;;;;;3.67;3.30;;;12.20;99.90;;;;;;5052297;28;20483;-73
2023/06/14 04:41:03;;;;;;;3.67;3.30;;;12.20;99.90;;;;;;5052102;28;20480;-73
2023/06/14 04:43:31;;;;;;;3.23;2.90;;;12.30;99.90;;;;;;5052192;28;20459;-73
2023/06/14 04:45:58;;;;;;;4.17;3.60;;;12.40;99.90;;;;;;5069066;28;21021;-72
2023/06/14 04:48:25;;;;;;;4.17;3.23;;;12.40;99.90;;;;;;5052489;28;20490;-73
2023/06/14 04:50:53;;;;;;;4.33;3.47;;;12.50;99.90;;;;;;5052111;28;20459;-73
2023/06/14 04:53:22;;;;;;;4.00;3.30;;;12.60;99.90;;;;;;5052328;28;20463;-73
2023/06/14 04:55:50;;;;;;;4.57;3.63;;;12.70;99.90;;;;;;5052214;28;20471;-73
2023/06/14 04:58:17;;;;;;;3.27;2.97;;;12.70;99.90;;;;;;5052487;28;20541;-71
2023/06/14 05:00:44;;;;;;;4.57;3.50;;;12.80;99.90;;;;;;5068936;28;20481;-73
2023/06/14 05:03:12;;;;;;;4.80;3.30;;;13.00;99.90;;;;;;5072253;28;20978;-73
2023/06/14 05:05:40;;;;;;;3.97;3.60;;;13.00;99.90;;;;;;5072399;28;20521;-73
2023/06/14 05:08:08;;;;;;;4.67;4.27;;;13.10;99.90;;;;;;5072146;28;21001;-73
2023/06/14 05:10:36;;;;;;;4.03;3.70;;;13.20;99.90;;;;;;5072274;28;20464;-74
2023/06/14 05:13:03;;;;;;;3.83;3.47;;;13.30;99.90;;;;;;5060546;28;20467;-72
2023/06/14 05:15:29;;;;;;;4.30;3.63;;;13.40;99.90;;;;;;5052154;28;20463;-72
2023/06/14 05:17:56;;;;;;;3.97;3.30;;;13.50;99.90;;;;;;5051517;28;20486;-73
2023/06/14 05:20:24;;;;;;;4.17;3.00;;;13.60;99.90;;;;;;5051895;28;20523;-73
2023/06/14 05:22:51;;;;;;;4.83;3.93;;;13.60;99.90;;;;;;5051441;28;21064;-72
2023/06/14 05:25:20;;;;;;;3.90;3.10;;;13.70;99.90;;;;;;5052132;28;20485;-72
2023/06/14 05:27:46;;;;;;;4.27;3.00;;;13.90;99.90;;;;;;5051610;28;20479;-73
2023/06/14 05:30:14;;;;;;;4.17;3.77;;;14.00;99.90;;;;;;5051639;28;20460;-73
2023/06/14 05:32:41;;;;;;;3.93;3.53;;;14.10;99.80;;;;;;5051528;28;20466;-73
2023/06/14 05:35:09;;;;;;;5.00;3.47;;;14.20;99.70;;;;;;5043217;28;20533;-73
2023/06/14 05:37:35;;;;;;;5.33;2.83;;;14.30;99.80;;;;;;5051781;28;20467;-73
2023/06/14 05:40:05;;;;;;;6.17;3.17;;;14.40;99.20;;;;;;5051194;28;20479;-73
2023/06/14 05:42:33;;;;;;;3.70;3.40;;;14.50;98.70;;;;;;5051436;28;20463;-73
2023/06/14 05:45:00;;;;;;;7.00;4.30;;;14.60;98.90;;;;;;5051369;28;20884;-72
2023/06/14 05:47:27;;;;;;;4.03;3.50;;;14.70;98.80;;;;;;5051613;28;20558;-73
2023/06/14 05:49:54;;;;;;;3.03;2.70;;;14.80;99.00;;;;;;5050630;28;20451;-73
2023/06/14 05:52:20;;;;;;;4.53;3.90;;;14.90;98.40;;;;;;5051090;28;20474;-73
2023/06/14 05:54:48;;;;;;;3.83;3.40;;;15.00;98.40;;;;;;5051205;28;20820;-74
2023/06/14 05:57:14;;;;;;;3.53;3.23;;;15.10;98.30;;;;;;5051313;28;20456;-72
2023/06/14 05:59:42;;;;;;;3.40;3.10;;;15.20;98.30;;;;;;5058788;28;20514;-73
2023/06/14 06:02:09;;;;;;;3.60;3.30;;;15.30;98.30;;;;;;5042639;28;20467;-73
2023/06/14 06:04:36;;;;;;;5.30;3.20;;;15.40;98.30;;;;;;5051488;28;20455;-72
2023/06/14 06:07:03;;;;;;;3.97;3.57;;;15.50;98.50;;;;;;5061750;28;20465;-73
2023/06/14 06:09:30;;;;;;;4.70;3.20;;;15.50;98.10;;;;;;5071161;28;20485;-73
2023/06/14 06:11:57;;;;;;;4.10;3.03;;;15.50;97.70;;;;;;5068758;28;20976;-73
2023/06/14 06:14:23;;;;;;;3.13;2.80;;;15.60;97.90;;;;;;5051409;28;20459;-74
2023/06/14 06:16:53;;;;;;;3.23;2.93;;;15.70;97.50;;;;;;5121738;22;21004;-70
2023/06/14 06:19:19;;;;;;;4.77;3.07;;;15.80;97.30;;;;;;5050990;28;20921;-71
2023/06/14 06:21:46;;;;;;;4.20;3.70;;;15.90;97.40;;;;;;5050614;28;20467;-70
2023/06/14 06:24:12;;;;;;;3.60;3.30;;;16.00;96.90;;;;;;5051347;28;20463;-70
2023/06/14 06:26:39;;;;;;;5.03;3.47;;;16.00;96.50;;;;;;5051002;28;20475;-71
2023/06/14 06:29:06;;;;;;;4.47;3.70;;;16.10;96.70;;;;;;5050780;28;20514;-71
2023/06/14 06:31:33;;;;;;;3.80;3.43;;;16.20;96.90;;;;;;5050437;28;20456;-73
2023/06/14 06:34:01;;;;;;;4.53;3.67;;;16.30;97.20;;;;;;5050821;28;20951;-74
2023/06/14 06:36:27;;;;;;;4.80;3.37;;;16.40;96.90;;;;;;5050765;28;20463;-73
2023/06/14 06:38:54;;;;;;;4.40;3.20;;;16.50;96.50;;;;;;5050797;28;20484;-70
2023/06/14 06:41:21;;;;;;;3.90;3.60;;;16.50;96.00;;;;;;5050577;28;20973;-72
2023/06/14 06:43:47;;;;;;;4.30;3.90;;;16.60;95.40;;;;;;5050241;28;20467;-74
2023/06/14 06:46:14;;;;;;;3.87;3.57;;;16.80;95.90;;;;;;5050451;28;20455;-70
2023/06/14 06:48:41;;;;;;;3.40;3.10;;;16.90;96.60;;;;;;5049354;28;20856;-71
2023/06/14 06:51:09;;;;;;;4.23;3.03;;;17.00;96.40;;;;;;5049836;28;20463;-72
2023/06/14 06:53:35;;;;;;;3.93;3.60;;;17.10;96.30;;;;;;5049858;28;20478;-71
2023/06/14 06:56:02;;;;;;;3.97;3.30;;;17.20;95.60;;;;;;5050526;28;20490;-71
2023/06/14 06:58:29;;;;;;;11.30;3.60;;;17.20;95.30;;;;;;5050087;28;20485;-70
2023/06/14 07:00:56;;;;;;;4.63;3.83;;;17.30;95.50;;;;;;5049866;28;20479;-71
2023/06/14 07:03:23;;;;;;;5.00;3.63;;;17.40;95.80;;;;;;5050040;28;20469;-71
2023/06/14 07:05:49;;;;;;;3.70;3.30;;;17.40;95.40;;;;;;5050313;28;20464;-70
2023/06/14 07:08:17;;;;;;;5.83;3.43;;;17.50;94.90;;;;;;5050224;28;20479;-71
2023/06/14 07:10:44;;;;;;;3.50;3.20;;;17.70;94.30;;;;;;5050028;28;20456;-71
2023/06/14 07:13:11;;;;;;;4.80;3.23;;;17.80;95.10;;;;;;5049692;28;20482;-71
2023/06/14 07:15:38;;;;;;;3.47;3.13;;;17.80;95.40;;;;;;5050200;28;20558;-73
2023/06/14 07:18:06;;;;;;;5.07;4.23;;;17.90;95.00;;;;;;5050238;28;20487;-73
2023/06/14 07:20:33;;;;;;;4.30;3.90;;;18.00;94.90;;;;;;5050392;28;20483;-74
2023/06/14 07:23:00;;;;;;;4.90;3.40;;;18.10;93.60;;;;;;5050131;28;20868;-72
2023/06/14 07:25:28;;;;;;;3.33;3.03;;;18.20;94.70;;;;;;5050177;28;20463;-72
2023/06/14 07:27:54;;;;;;;4.20;3.20;;;18.30;93.80;;;;;;5049912;28;20529;-71
2023/06/14 07:30:25;;;;;;;3.30;3.00;;;18.30;94.40;;;;;;5049878;28;20849;-70
2023/06/14 07:32:52;;;;;;;4.20;3.80;;;18.50;94.80;;;;;;5049979;28;20455;-70
2023/06/14 07:35:19;;;;;;;3.53;3.23;;;18.50;93.50;;;;;;5049912;28;20570;-71
2023/06/14 07:37:46;;;;;;;4.23;3.63;;;18.60;93.70;;;;;;5049901;28;20506;-69
2023/06/14 07:40:14;;;;;;;3.70;3.30;;;18.70;93.50;;;;;;5049406;28;20828;-71
2023/06/14 07:42:42;;;;;;;5.43;3.33;;;18.70;93.90;;;;;;5049403;28;20471;-70
2023/06/14 07:45:09;;;;;;;4.10;3.37;;;18.80;94.00;;;;;;5049465;28;20463;-70
2023/06/14 07:47:36;;;;;;;3.50;3.20;;;18.90;93.30;;;;;;5049640;28;20463;-70
2023/06/14 07:50:03;;;;;;;7.27;3.80;;;19.00;93.70;;;;;;5049993;28;20459;-70
2023/06/14 07:52:30;;;;;;;4.30;3.73;;;19.10;94.70;;;;;;5049848;28;20500;-70
2023/06/14 07:54:58;;;;;;;5.10;3.83;;;19.20;94.10;;;;;;5049993;28;20465;-70
2023/06/14 07:57:25;;;;;;;4.67;3.67;;;19.30;93.30;;;;;;5050033;28;21067;-70
2023/06/14 07:59:53;;;;;;;4.67;3.87;;;19.30;94.60;;;;;;5052977;28;20487;-71
2023/06/14 08:02:20;;;;;;;3.87;3.57;;;19.40;94.80;;;;;;5053188;28;20852;-71
2023/06/14 08:04:48;;;;;;;4.10;3.73;;;19.50;94.00;;;;;;5054019;28;20811;-71
2023/06/14 08:07:14;;;;;;;4.27;3.50;;;19.60;94.10;;;;;;5054247;28;20459;-72
2023/06/14 08:09:41;;;;;;;5.70;3.87;;;19.70;94.70;;;;;;5053882;28;20570;-69
2023/06/14 08:12:10;;;;;;;3.53;2.90;;;19.80;92.80;;;;;;5053883;28;20466;-71
2023/06/14 08:14:37;;;;;;;3.57;3.23;;;19.90;93.70;;;;;;5053951;28;20487;-71
2023/06/14 08:17:05;;;;;;;4.37;3.33;;;20.00;92.90;;;;;;5053809;28;20476;-69
2023/06/14 08:19:32;;;;;;;3.83;3.33;;;20.10;94.00;;;;;;5053304;28;20480;-71
2023/06/14 08:21:59;;;;;;;3.33;3.13;;;20.10;94.10;;;;;;5052887;28;20452;-73
2023/06/14 08:24:26;;;;;;;3.17;2.87;;;20.20;92.60;;;;;;5053410;28;20461;-69
2023/06/14 08:26:53;;;;;;;3.63;3.17;;;20.30;93.40;;;;;;5053117;28;20488;-72
2023/06/14 08:29:20;;;;;;;4.20;3.80;;;20.40;93.40;;;;;;5053270;28;20484;-68
2023/06/14 08:31:48;;;;;;;4.27;3.30;;;20.50;92.20;;;;;;5052972;28;20530;-73
2023/06/14 08:34:16;;;;;;;4.00;3.70;;;20.60;93.00;;;;;;5053883;28;20468;-71
2023/06/14 08:36:42;;;;;;;4.67;3.80;;;20.60;94.90;;;;;;5053166;28;20957;-71
2023/06/14 08:39:10;;;;;;;4.57;3.90;;;20.70;94.00;;;;;;5052889;28;20484;-70
2023/06/14 08:41:37;;;;;;;3.77;3.40;;;20.70;92.30;;;;;;5052505;28;20491;-73
2023/06/14 08:44:06;;;;;;;4.00;3.60;;;20.80;93.10;;;;;;5050579;28;20971;-71
2023/06/14 08:46:35;;;;;;;3.70;3.40;;;20.90;92.80;;;;;;5051954;28;20560;-70
2023/06/14 08:49:04;;;;;;;3.73;3.30;;;20.90;93.50;;;;;;5052291;28;21043;-68
2023/06/14 08:51:36;;;;;;;4.10;3.80;;;21.00;95.40;;;;;;5051747;28;20461;-72
2023/06/14 08:54:04;;;;;;;3.93;3.50;;;21.10;93.00;;;;;;5052431;28;20466;-71
2023/06/14 08:56:31;;;;;;;4.73;3.70;;;21.20;93.90;;;;;;5052378;28;20524;-71
2023/06/14 08:59:02;;;;;;;6.57;4.00;;;21.20;93.50;;;;;;5051757;28;20513;-72
2023/06/14 09:01:31;;;;;;;7.60;3.93;;;21.30;93.60;;;;;;5051328;28;20501;-72
2023/06/14 09:03:58;;;;;;;4.97;4.20;;;21.30;93.10;;;;;;5052077;28;20557;-71
2023/06/14 09:06:27;;;;;;;4.03;3.70;;;21.40;94.00;;;;;;5051666;28;20585;-73
2023/06/14 09:08:57;;;;;;;4.40;3.57;;;21.50;94.50;;;;;;5050957;28;20493;-70
2023/06/14 09:11:25;;;;;;;4.40;4.00;;;21.60;93.20;;;;;;5050275;28;20466;-72
2023/06/14 09:13:52;;;;;;;5.20;4.37;;;21.70;95.30;;;;;;5051523;28;20478;-72
2023/06/14 09:16:20;;;;;;;4.93;3.70;;;21.80;92.80;;;;;;5051332;28;20545;-71
2023/06/14 09:18:48;;;;;;;4.80;3.20;;;21.70;94.00;;;;;;5052107;28;20996;-71
2023/06/14 09:21:16;;;;;;;5.60;3.60;;;21.80;93.70;;;;;;5050936;28;20478;-70
2023/06/14 09:23:44;;;;;;;3.90;3.50;;;21.90;94.80;;;;;;5051249;28;20487;-72
2023/06/14 09:26:14;;;;;;;4.10;3.70;;;22.00;93.60;;;;;;5051080;28;20473;-71
2023/06/14 09:28:45;;;;;;;3.77;3.17;;;22.20;94.70;;;;;;5050626;28;20494;-70
2023/06/14 09:31:12;;;;;;;3.90;3.50;;;22.20;94.20;;;;;;5050810;28;20488;-71
2023/06/14 09:33:39;;;;;;;4.70;4.30;;;22.40;92.10;;;;;;5050787;28;20958;-72
2023/06/14 09:36:10;;;;;;;3.97;3.57;;;22.50;91.00;;;;;;5051195;28;20464;-72
2023/06/14 09:38:37;;;;;;;3.30;3.00;;;22.50;91.90;;;;;;5051135;28;20494;-73
2023/06/14 09:41:05;;;;;;;5.60;4.13;;;22.60;91.50;;;;;;5050897;28;20479;-71
2023/06/14 09:43:34;;;;;;;3.57;3.27;;;22.60;91.50;;;;;;5050225;28;21145;-71
2023/06/14 09:46:01;;;;;;;4.53;3.70;;;22.70;93.20;;;;;;5050277;28;20467;-73
2023/06/14 09:48:28;;;;;;;4.10;3.57;;;22.80;90.40;;;;;;5050541;28;21222;-71
2023/06/14 09:50:58;;;;;;;3.60;3.30;;;22.90;93.20;;;;;;5050479;28;20463;-74
2023/06/14 09:53:26;;;;;;;4.33;3.73;;;23.00;92.90;;;;;;5049270;28;21112;-72
2023/06/14 09:55:55;;;;;;;5.07;3.23;;;23.10;92.00;;;;;;5051333;28;20467;-70
2023/06/14 09:58:27;;;;;;;4.33;3.80;;;23.20;93.00;;;;;;5050432;28;20540;-71
2023/06/14 10:00:56;;;;;;;4.40;3.77;;;23.30;90.80;;;;;;5047737;28;20488;-70
2023/06/14 10:03:28;;;;;;;4.33;3.67;;;23.40;92.60;;;;;;5050350;28;20467;-71
2023/06/14 10:06:00;;;;;;;3.30;3.00;;;23.60;92.10;;;;;;5050940;28;20499;-71
2023/06/14 10:08:30;;;;;;;3.57;3.27;;;23.70;91.50;;;;;;5050761;28;20485;-71
2023/06/14 10:10:57;;;;;;;4.40;3.40;;;23.90;91.40;;;;;;5050626;28;20488;-71
2023/06/14 10:13:25;;;;;;;5.07;3.80;;;24.00;91.50;;;;;;5050234;28;20462;-69
2023/06/14 10:15:59;;;;;;;5.40;3.53;;;24.10;90.30;;;;;;5050945;28;20470;-71
2023/06/14 10:18:34;;;;;;;3.90;3.50;;;24.10;90.50;;;;;;5050478;28;20551;-71
2023/06/14 10:21:09;;;;;;;4.83;3.90;;;24.00;91.50;;;;;;5049949;28;21044;-70
2023/06/14 10:23:41;;;;;;;3.90;3.50;;;24.00;90.60;;;;;;5049837;28;20977;-70
2023/06/14 10:26:08;;;;;;;3.30;3.00;;;24.00;90.40;;;;;;5050653;28;20460;-71
2023/06/14 10:28:38;;;;;;;4.00;3.10;;;24.20;92.20;;;;;;5050274;28;20518;-70
2023/06/14 10:31:08;;;;;;;3.27;2.97;;;24.20;90.30;;;;;;5050319;28;20458;-70
2023/06/14 10:33:36;;;;;;;4.87;2.93;;;23.90;87.60;;;;;;5049917;28;20954;-70
2023/06/14 10:36:10;;;;;;;3.50;3.00;;;23.70;91.30;;;;;;5049865;28;20463;-70
2023/06/14 10:38:38;;;;;;;3.33;3.03;;;23.80;90.50;;;;;;5050425;28;20492;-70
2023/06/14 10:41:05;;;;;;;3.70;3.40;;;24.00;90.90;;;;;;5050197;28;20536;-70
2023/06/14 10:43:32;;;;;;;3.57;3.27;;;24.20;88.90;;;;;;5049958;28;20529;-69
2023/06/14 10:46:18;;;;;;;4.20;3.30;;;24.30;87.10;;;;;;5050144;28;20463;-70
2023/06/14 10:48:45;;;;;;;5.43;3.33;;;24.30;89.40;;;;;;5050399;28;20484;-70
2023/06/14 10:51:21;;;;;;;3.43;2.80;;;24.10;89.50;;;;;;5049900;28;20459;-70
2023/06/14 10:53:49;;;;;;;4.03;3.40;;;23.90;90.10;;;;;;5049940;28;20462;-67
2023/06/14 10:56:29;;;;;;;3.83;3.53;;;23.60;90.60;;;;;;5049796;28;20978;-70
2023/06/14 10:58:57;;;;;;;3.47;3.17;;;23.80;91.10;;;;;;5049892;28;20487;-69
2023/06/14 11:01:33;;;;;;;4.10;3.53;;;24.10;89.90;;;;;;5049477;28;20479;-70
2023/06/14 11:04:09;;;;;;;3.97;3.57;;;24.40;90.90;;;;;;5050281;28;20464;-71
2023/06/14 11:06:47;;;;;;;3.20;2.83;;;24.70;91.60;;;;;;5050021;28;20473;-70
2023/06/14 11:09:52;;;;;;;3.73;3.20;;;24.90;90.80;;;;;;5047204;28;20554;-71
2023/06/14 11:12:19;;;;;;;3.97;3.03;;;25.20;92.50;;;;;;5049185;28;20467;-73
2023/06/14 11:14:48;;;;;;;4.00;3.60;;;25.40;87.80;;;;;;5049874;28;20475;-73
2023/06/14 11:17:16;;;;;;;3.83;3.43;;;25.40;88.30;;;;;;5049020;28;20506;-73
2023/06/14 11:19:43;;;;;;;3.30;3.03;;;25.40;90.10;;;;;;5049910;28;20483;-73
2023/06/14 11:22:10;;;;;;;3.40;3.10;;;25.60;87.30;;;;;;5047474;28;20487;-71
2023/06/14 11:24:36;;;;;;;4.50;3.80;;;25.60;85.30;;;;;;5050158;28;20911;-72
2023/06/14 11:27:03;;;;;;;3.87;3.57;;;25.80;89.40;;;;;;5049777;28;20467;-71
2023/06/14 11:29:31;;;;;;;3.40;3.10;;;25.90;88.20;;;;;;5049242;28;20485;-70
2023/06/14 11:31:57;;;;;;;3.97;3.57;;;26.10;83.90;;;;;;5049265;28;20545;-68
2023/06/14 11:34:26;;;;;;;3.60;3.30;;;26.10;86.80;;;;;;5052435;28;20480;-71
2023/06/14 11:36:53;;;;;;;3.67;3.37;;;25.90;87.00;;;;;;5053746;28;20969;-67
2023/06/14 11:39:26;;;;;;;3.47;3.17;;;25.60;85.40;;;;;;5049846;28;20515;-71
2023/06/14 11:41:52;;;;;;;3.50;3.20;;;25.10;88.40;;;;;;5053000;28;20501;-72
2023/06/14 11:44:20;;;;;;;3.40;3.10;;;24.70;86.50;;;;;;5052952;28;20466;-71
2023/06/14 11:46:46;;;;;;;4.07;3.67;;;24.30;86.90;;;;;;5053948;28;20520;-71
2023/06/14 11:49:13;;;;;;;3.73;3.43;;;24.00;85.30;;;;;;5053491;28;20513;-71
2023/06/14 11:51:43;;;;;;;4.30;3.20;;;23.80;87.10;;;;;;5052908;28;20468;-71
2023/06/14 11:54:10;;;;;;;3.43;3.13;;;23.90;90.10;;;;;;5053011;28;20819;-72
2023/06/14 11:56:38;;;;;;;3.50;3.20;;;24.10;87.90;;;;;;5053634;28;20462;-72
2023/06/14 11:59:05;;;;;;;3.37;2.90;;;24.30;89.10;;;;;;5053286;28;20483;-74
2023/06/14 12:01:32;;;;;;;3.33;3.03;;;24.60;89.40;;;;;;5045124;28;20549;-71
2023/06/14 12:04:00;;;;;;;3.50;3.20;;;24.90;89.50;;;;;;5053367;28;20460;-72
2023/06/14 12:06:32;;;;;;;4.17;3.13;;;25.10;86.40;;;;;;5052735;28;20560;-72
2023/06/14 12:09:02;;;;;;;4.97;3.17;;;25.20;87.00;;;;;;5053287;28;20517;-72
2023/06/14 12:11:34;;;;;;;3.10;2.80;;;25.30;89.40;;;;;;5052784;28;20553;-71
2023/06/14 12:14:01;;;;;;;3.97;3.07;;;25.40;88.90;;;;;;5052749;28;20517;-73
2023/06/14 12:16:32;;;;;;;3.30;3.00;;;25.60;89.40;;;;;;5053549;28;20470;-74
2023/06/14 12:19:11;;;;;;;4.53;3.20;;;25.80;88.90;;;;;;5125260;22;20544;-92
2023/06/14 12:21:40;;;;;;;4.00;3.70;;;25.70;86.70;;;;;;5047056;28;20478;-91
2023/06/14 12:24:08;;;;;;;5.37;3.63;;;25.70;85.40;;;;;;5055800;28;20467;-91
2023/06/14 12:26:40;;;;;;;3.47;3.17;;;25.80;86.10;;;;;;5056439;28;20854;-91
2023/06/14 12:29:08;;;;;;;3.23;2.93;;;25.80;86.00;;;;;;5044259;28;20473;-91
2023/06/14 12:31:34;;;;;;;3.53;3.23;;;25.80;89.20;;;;;;5047510;28;20827;-91
2023/06/14 12:34:01;;;;;;;3.93;3.53;;;25.90;84.60;;;;;;5048253;28;20559;-91
2023/06/14 12:36:28;;;;;;;3.50;3.20;;;25.80;82.10;;;;;;5044609;28;20457;-91
2023/06/14 12:38:55;;;;;;;3.10;2.90;;;25.50;80.80;;;;;;5043532;28;21011;-92
2023/06/14 12:41:24;;;;;;;3.50;3.20;;;25.10;81.10;;;;;;5039432;28;20775;-92
2023/06/14 12:43:51;;;;;;;3.93;3.53;;;24.90;84.80;;;;;;5047397;28;20461;-91
2023/06/14 12:46:18;;;;;;;4.00;3.27;;;24.70;85.30;;;;;;5043887;28;20474;-90
2023/06/14 12:48:45;;;;;;;3.60;3.30;;;24.40;82.40;;;;;;5046984;28;20482;-91
2023/06/14 12:51:11;;;;;;;3.73;3.30;;;24.40;84.60;;;;;;5046487;28;20476;-91
2023/06/14 12:53:38;;;;;;;3.93;3.50;;;24.70;84.70;;;;;;5046575;28;20999;-91